Nicole Leigh Reinauer — WCZ5696 — position and weather

sailwx.info

Track history (hours):
 
Tides and Currents Weather Stations Pressure Air Temp Water Temp Dewpoint Dewpoint Depression Visibility Wind Speed Wind Dir Waves Ship Positions

Nicole Leigh Reinauer

Owner: H A REINAUER INC, STATEN ISLAND, NY. More information available from US FCC via Universal Licensing System and Coast Guard Vessel Documentation Center.

Last reported at 2014-Oct-31 21:33 UTC. Time now 2014-Nov-01 13:49 UTC.
Position N 27°07' W 080°02'.

Length 167 m; draft 6.6 m.

Type: Wing in ground effect craft. MMSI: 366774330.

Date/timePositionNaut miles runAvg speedWind from/ knotsBaromVisibWave heightAir tempDewpointWater temp
2014-Oct-31 21:33N 27°07' W 080°02'1111.5
2014-Oct-31 20:33N 26°56' W 079°60'1312.1
2014-Oct-31 19:31N 26°44' W 079°58'1212.5
2014-Oct-31 18:33N 26°32' W 079°59'1313.0
2014-Oct-31 17:33N 26°19' W 080°01'1212.1
2014-Oct-31 16:33N 26°07' W 080°05'4 3.6
2014-Oct-31 15:33N 26°04' W 080°02'8 7.7
2014-Oct-31 14:33N 25°57' W 080°01'10 9.9
2014-Oct-31 13:34N 25°47' W 080°02'10 9.8
2014-Oct-31 12:34N 25°37' W 080°02'1110.2
2014-Oct-31 11:30N 25°26' W 080°03'  
2014-Oct-28 20:33N 29°57' W 090°01'21 1.8
2014-Oct-28 09:05N 29°60' W 090°24'0 0.0
2014-Oct-28 08:20N 29°60' W 090°24'0 0.0
2014-Oct-28 06:23N 29°60' W 090°24'2 0.1
2014-Oct-27 08:30N 29°58' W 090°24'7 7.3
2014-Oct-27 07:33N 29°58' W 090°16'7 6.1
2014-Oct-27 06:22N 29°55' W 090°08'12 0.5
2014-Oct-26 06:20N 29°54' W 089°55'0 0.0
2014-Oct-26 02:20N 29°54' W 089°55'  
Track history (hours):
 
Tides and Currents Weather Stations Pressure Air Temp Water Temp Dewpoint Dewpoint Depression Visibility Wind Speed Wind Dir Waves Ship Positions

Nicole Leigh Reinauer

Owner: H A REINAUER INC, STATEN ISLAND, NY. More information available from US FCC via Universal Licensing System and Coast Guard Vessel Documentation Center.

Last reported at 2014-Oct-31 21:33 UTC. Time now 2014-Nov-01 13:49 UTC.
Position N 27°07' W 080°02'.

Length 167 m; draft 6.6 m.

Type: Wing in ground effect craft. MMSI: 366774330.

Date/timePositionNaut miles runAvg speedWind from/ knotsBaromVisibWave heightAir tempDewpointWater temp
2014-Oct-31 21:33N 27°07' W 080°02'1111.5
2014-Oct-31 20:33N 26°56' W 079°60'1312.1
2014-Oct-31 19:31N 26°44' W 079°58'1212.5
2014-Oct-31 18:33N 26°32' W 079°59'1313.0
2014-Oct-31 17:33N 26°19' W 080°01'1212.1
2014-Oct-31 16:33N 26°07' W 080°05'4 3.6
2014-Oct-31 15:33N 26°04' W 080°02'8 7.7
2014-Oct-31 14:33N 25°57' W 080°01'10 9.9
2014-Oct-31 13:34N 25°47' W 080°02'10 9.8
2014-Oct-31 12:34N 25°37' W 080°02'1110.2
2014-Oct-31 11:30N 25°26' W 080°03'  
2014-Oct-28 20:33N 29°57' W 090°01'21 1.8
2014-Oct-28 09:05N 29°60' W 090°24'0 0.0
2014-Oct-28 08:20N 29°60' W 090°24'0 0.0
2014-Oct-28 06:23N 29°60' W 090°24'2 0.1
2014-Oct-27 08:30N 29°58' W 090°24'7 7.3
2014-Oct-27 07:33N 29°58' W 090°16'7 6.1
2014-Oct-27 06:22N 29°55' W 090°08'12 0.5
2014-Oct-26 06:20N 29°54' W 089°55'0 0.0
2014-Oct-26 02:20N 29°54' W 089°55'  

Dump ship's entire track history